createdAt,value
2017-05-19T00:00:51.920Z,22.21
2017-05-19T00:02:02.183Z,22.15
2017-05-19T00:03:12.452Z,22.18
2017-05-19T00:04:22.722Z,22.21
2017-05-19T00:05:32.681Z,22.2
2017-05-19T00:06:42.695Z,22.24
2017-05-19T00:07:52.980Z,22.17
2017-05-19T00:09:02.617Z,22.22
2017-05-19T00:10:12.564Z,22.21
2017-05-19T00:11:22.515Z,22.17
2017-05-19T00:12:32.523Z,22.22
2017-05-19T00:13:42.794Z,22.24
2017-05-19T00:14:53.059Z,22.2
2017-05-19T00:16:03.011Z,22.15
2017-05-19T00:17:12.967Z,22.27
2017-05-19T00:18:22.614Z,22.2
2017-05-19T00:19:32.875Z,22.2
2017-05-19T00:20:42.824Z,22.2
2017-05-19T00:21:52.465Z,22.24
2017-05-19T00:23:02.734Z,22.21
2017-05-19T00:24:12.370Z,22.24
2017-05-19T00:25:22.643Z,22.22
2017-05-19T00:26:32.909Z,22.25
2017-05-19T00:27:42.236Z,22.18
2017-05-19T00:28:52.502Z,22.22
2017-05-19T00:30:02.773Z,22.15
2017-05-19T00:31:12.410Z,22.15
2017-05-19T00:32:22.366Z,22.15
2017-05-19T00:33:31.703Z,22.18
2017-05-19T00:34:41.969Z,22.18
2017-05-19T00:35:51.981Z,22.2
2017-05-19T00:37:02.247Z,22.18
2017-05-19T00:38:11.878Z,22.18
2017-05-19T00:39:22.148Z,22.21
2017-05-19T00:40:32.424Z,22.18
2017-05-19T00:41:42.376Z,22.22
2017-05-19T00:42:52.331Z,22.21
2017-05-19T00:44:02.290Z,22.25
2017-05-19T00:45:11.948Z,22.21
2017-05-19T00:46:22.227Z,22.15
2017-05-19T00:47:31.864Z,22.21
2017-05-19T00:48:41.850Z,22.14
2017-05-19T00:49:52.114Z,22.2
2017-05-19T00:51:02.075Z,22.22
2017-05-19T00:52:11.709Z,22.22
2017-05-19T00:53:21.665Z,22.18
2017-05-19T00:54:31.616Z,22.24
2017-05-19T00:55:41.570Z,22.24
2017-05-19T00:56:51.526Z,22.2
2017-05-19T00:58:01.166Z,22.21
2017-05-19T00:59:10.803Z,22.25
2017-05-19T01:00:20.762Z,22.15
2017-05-19T01:01:30.715Z,22.24
2017-05-19T01:02:40.988Z,22.21
2017-05-19T01:03:51.253Z,22.22
2017-05-19T01:05:01.209Z,22.17
2017-05-19T01:06:10.221Z,22.21
2017-05-19T01:07:19.856Z,22.18
2017-05-19T01:08:30.128Z,22.24
2017-05-19T01:09:40.095Z,22.14
2017-05-19T01:10:50.362Z,22.21
2017-05-19T01:12:00.002Z,22.15
2017-05-19T01:13:09.951Z,22.14
2017-05-19T01:14:19.907Z,22.22
2017-05-19T01:15:29.540Z,22.17
2017-05-19T01:16:39.495Z,22.15
2017-05-19T01:17:48.828Z,22.24
2017-05-19T01:18:59.150Z,22.12
2017-05-19T01:20:09.107Z,22.15
2017-05-19T01:21:19.065Z,22.17
2017-05-19T01:22:29.322Z,22.14
2017-05-19T01:23:39.279Z,22.14
2017-05-19T01:24:49.542Z,22.24
2017-05-19T01:25:59.805Z,22.17
2017-05-19T01:27:09.754Z,22.15
2017-05-19T01:28:19.712Z,22.17
2017-05-19T01:29:29.987Z,22.14
2017-05-19T01:30:39.950Z,22.12
2017-05-19T01:31:49.906Z,22.17
2017-05-19T01:33:00.176Z,22.17
2017-05-19T01:34:10.124Z,22.21
2017-05-19T01:35:20.078Z,22.17
2017-05-19T01:36:29.401Z,22.18
2017-05-19T01:37:39.354Z,22.21
2017-05-19T01:38:49.630Z,22.17
2017-05-19T01:39:59.902Z,22.14
2017-05-19T01:41:10.173Z,22.18
2017-05-19T01:42:20.118Z,22.22
2017-05-19T01:43:30.080Z,22.21
2017-05-19T01:44:39.717Z,22.18
2017-05-19T01:45:49.671Z,22.15
2017-05-19T01:46:59.937Z,22.17
2017-05-19T01:48:09.572Z,22.14
2017-05-19T01:49:19.537Z,22.12
2017-05-19T01:50:29.487Z,22.14
2017-05-19T01:51:39.439Z,22.2
2017-05-19T01:52:49.392Z,22.12
2017-05-19T01:53:59.660Z,22.17
2017-05-19T01:55:09.611Z,22.14
2017-05-19T01:56:19.565Z,22.14
2017-05-19T01:57:29.828Z,22.2
2017-05-19T01:58:39.781Z,22.17
2017-05-19T01:59:50.052Z,22.14
2017-05-19T02:00:59.692Z,22.18
2017-05-19T02:02:09.650Z,22.18
2017-05-19T02:03:19.604Z,22.12
2017-05-19T02:04:29.562Z,22.15
2017-05-19T02:05:39.513Z,22.12
2017-05-19T02:06:49.161Z,22.12
2017-05-19T02:07:59.433Z,22.12
2017-05-19T02:09:09.075Z,22.14
2017-05-19T02:10:19.350Z,22.15
2017-05-19T02:11:29.316Z,22.17
2017-05-19T02:12:39.589Z,22.12
2017-05-19T02:13:49.855Z,22.12
2017-05-19T02:14:59.815Z,22.15
2017-05-19T02:16:10.081Z,22.12
2017-05-19T02:17:20.346Z,22.14
2017-05-19T02:18:29.984Z,22.12
2017-05-19T02:19:39.940Z,22.14
2017-05-19T02:20:50.219Z,22.1
2017-05-19T02:22:00.496Z,22.15
2017-05-19T02:23:10.139Z,22.15
2017-05-19T02:24:19.157Z,22.1
2017-05-19T02:25:29.120Z,22.1
2017-05-19T02:26:39.390Z,22.1
2017-05-19T02:27:49.347Z,22.18
2017-05-19T02:28:59.299Z,22.1
2017-05-19T02:30:09.583Z,22.14
2017-05-19T02:31:18.905Z,22.15
2017-05-19T02:32:29.174Z,22.09
2017-05-19T02:33:39.134Z,22.09
2017-05-19T02:34:49.089Z,22.17
2017-05-19T02:35:59.353Z,22.15
2017-05-19T02:37:09.614Z,22.14
2017-05-19T02:38:19.262Z,22.14
2017-05-19T02:39:29.212Z,22.09
2017-05-19T02:40:39.481Z,21.84
2017-05-19T02:41:49.432Z,21.9
2017-05-19T02:42:59.706Z,21.92
2017-05-19T02:44:09.659Z,21.9
2017-05-19T02:45:19.303Z,21.96
2017-05-19T02:46:29.578Z,22.02
2017-05-19T02:47:39.850Z,22.07
2017-05-19T02:48:49.812Z,22.03
2017-05-19T02:49:59.465Z,22.14
2017-05-19T02:51:09.422Z,22.14
2017-05-19T02:52:19.376Z,22.14
2017-05-19T02:53:29.656Z,22.12
2017-05-19T02:54:39.921Z,22.09
2017-05-19T02:55:49.864Z,22.14
2017-05-19T02:57:00.138Z,22.12
2017-05-19T02:58:10.091Z,22.17
2017-05-19T02:59:20.042Z,22.15
2017-05-19T03:00:29.682Z,22.18
2017-05-19T03:01:39.943Z,22.14
2017-05-19T03:02:49.585Z,22.12
2017-05-19T03:03:59.851Z,22.17
2017-05-19T03:05:10.120Z,22.14
2017-05-19T03:06:19.767Z,22.14
2017-05-19T03:07:29.406Z,22.14
2017-05-19T03:08:39.362Z,22.12
2017-05-19T03:09:49.651Z,22.17
2017-05-19T03:10:59.609Z,22.15
2017-05-19T03:12:09.933Z,22.18
2017-05-19T03:13:19.889Z,22.17
2017-05-19T03:14:30.159Z,22.14
2017-05-19T03:15:39.798Z,22.14
2017-05-19T03:16:50.072Z,22.17
2017-05-19T03:17:59.710Z,22.14
2017-05-19T03:19:09.667Z,22.14
2017-05-19T03:20:19.652Z,22.14
2017-05-19T03:21:29.290Z,22.12
2017-05-19T03:22:39.248Z,22.14
2017-05-19T03:23:49.514Z,22.14
2017-05-19T03:24:59.837Z,22.17
2017-05-19T03:26:09.480Z,22.15
2017-05-19T03:27:19.447Z,22.18
2017-05-19T03:28:29.710Z,22.15
2017-05-19T03:29:39.983Z,22.12
2017-05-19T03:30:49.944Z,22.14
2017-05-19T03:32:00.212Z,22.14
2017-05-19T03:33:10.482Z,22.14
2017-05-19T03:34:20.123Z,22.14
2017-05-19T03:35:30.076Z,22.14
2017-05-19T03:36:40.033Z,22.15
2017-05-19T03:37:49.672Z,22.14
2017-05-19T03:38:59.632Z,22.17
2017-05-19T03:40:09.589Z,22.14
2017-05-19T03:41:19.539Z,22.12
2017-05-19T03:42:29.183Z,22.12
2017-05-19T03:43:39.450Z,22.14
2017-05-19T03:44:49.716Z,22.14
2017-05-19T03:45:59.678Z,22.17
2017-05-19T03:47:09.317Z,22.18
2017-05-19T03:48:18.957Z,22.14
2017-05-19T03:49:28.904Z,22.14
2017-05-19T03:50:39.175Z,22.15
2017-05-19T03:51:49.436Z,22.18
2017-05-19T03:52:59.404Z,22.17
2017-05-19T03:54:09.678Z,22.12
2017-05-19T03:55:19.330Z,22.18
2017-05-19T03:56:28.654Z,22.12
2017-05-19T03:57:38.611Z,22.14
2017-05-19T03:58:48.886Z,22.14
2017-05-19T03:59:58.530Z,22.15
2017-05-19T04:01:08.504Z,22.12
2017-05-19T04:02:17.888Z,22.14
2017-05-19T04:03:27.845Z,22.1
2017-05-19T04:04:37.805Z,22.17
2017-05-19T04:05:48.090Z,22.17
2017-05-19T04:06:58.046Z,22.12
2017-05-19T04:08:08.316Z,22.14
2017-05-19T04:09:18.285Z,22.14
2017-05-19T04:10:27.926Z,22.15
2017-05-19T04:11:38.196Z,22.14
2017-05-19T04:12:48.167Z,22.17
2017-05-19T04:13:58.129Z,22.14
2017-05-19T04:15:08.087Z,22.15
2017-05-19T04:16:17.406Z,22.15
2017-05-19T04:17:27.669Z,22.18
2017-05-19T04:18:37.943Z,22.15
2017-05-19T04:19:48.218Z,22.14
2017-05-19T04:20:58.182Z,22.14
2017-05-19T04:22:08.444Z,22.14
2017-05-19T04:23:18.088Z,22.14
2017-05-19T04:24:28.045Z,22.17
2017-05-19T04:25:37.689Z,22.1
2017-05-19T04:26:47.956Z,22.1
2017-05-19T04:27:58.219Z,22.06
2017-05-19T04:29:07.856Z,22.1
2017-05-19T04:30:17.809Z,22.14
2017-05-19T04:31:27.772Z,22.1
2017-05-19T04:32:37.724Z,22.14
2017-05-19T04:33:47.687Z,22.12
2017-05-19T04:34:57.962Z,22.17
2017-05-19T04:36:07.923Z,22.18
2017-05-19T04:37:18.189Z,22.15
2017-05-19T04:38:28.651Z,22.1
2017-05-19T04:39:38.610Z,22.15
2017-05-19T04:40:48.249Z,22.1
2017-05-19T04:41:58.513Z,22.1
2017-05-19T04:43:08.465Z,22.2
2017-05-19T04:44:17.493Z,22.27
2017-05-19T04:45:27.138Z,22.17
2017-05-19T04:46:37.089Z,22.22
2017-05-19T04:47:47.358Z,22.2
2017-05-19T04:48:57.310Z,22.2
2017-05-19T04:50:07.270Z,22.21
2017-05-19T04:51:17.232Z,22.22
2017-05-19T04:52:27.542Z,22.18
2017-05-19T04:53:36.876Z,22.2
2017-05-19T04:54:46.845Z,22.15
2017-05-19T04:55:57.128Z,22.18
2017-05-19T04:57:07.078Z,22.22
2017-05-19T04:58:17.030Z,22.2
2017-05-19T04:59:27.303Z,22.22
2017-05-19T05:00:36.628Z,22.17
2017-05-19T05:01:46.889Z,22.18
2017-05-19T05:02:57.165Z,22.21
2017-05-19T05:04:07.434Z,22.21
2017-05-19T05:05:17.394Z,22.21
2017-05-19T05:06:27.353Z,22.21
2017-05-19T05:07:37.629Z,22.2
2017-05-19T05:08:47.588Z,22.3
2017-05-19T05:09:57.230Z,22.21
2017-05-19T05:11:07.500Z,22.21
2017-05-19T05:12:16.821Z,22.21
2017-05-19T05:13:26.465Z,22.21
2017-05-19T05:14:36.733Z,22.21
2017-05-19T05:15:47.006Z,22.2
2017-05-19T05:16:57.275Z,22.2
2017-05-19T05:18:06.913Z,22.18
2017-05-19T05:19:16.875Z,22.21
2017-05-19T05:20:26.509Z,22.3
2017-05-19T05:21:35.835Z,22.22
2017-05-19T05:22:45.475Z,22.22
2017-05-19T05:23:55.434Z,22.28
2017-05-19T05:25:05.072Z,22.24
2017-05-19T05:26:14.702Z,22.21
2017-05-19T05:27:24.345Z,22.27
2017-05-19T05:28:33.990Z,22.27
2017-05-19T05:29:43.941Z,22.2
2017-05-19T05:30:53.893Z,22.24
2017-05-19T05:32:04.167Z,22.18
2017-05-19T05:33:14.122Z,22.27
2017-05-19T05:34:24.172Z,22.28
2017-05-19T05:35:34.125Z,22.25
2017-05-19T05:36:43.449Z,22.2
2017-05-19T05:37:53.410Z,22.24
2017-05-19T05:39:03.373Z,22.24
2017-05-19T05:40:13.011Z,22.3
2017-05-19T05:41:22.647Z,22.28
2017-05-19T05:42:32.600Z,22.33
2017-05-19T05:43:42.880Z,22.28
2017-05-19T05:44:53.157Z,22.28
2017-05-19T05:46:03.108Z,22.27
2017-05-19T05:47:13.071Z,22.25
2017-05-19T05:48:22.713Z,22.27
2017-05-19T05:49:32.406Z,22.28
2017-05-19T05:50:42.678Z,22.28
2017-05-19T05:51:52.947Z,22.3
2017-05-19T05:53:02.607Z,22.33
2017-05-19T05:54:12.242Z,22.31
2017-05-19T05:55:21.875Z,22.28
2017-05-19T05:56:31.831Z,22.28
2017-05-19T05:57:41.794Z,22.31
2017-05-19T05:58:51.745Z,22.25
2017-05-19T06:00:02.012Z,22.31
2017-05-19T06:01:11.657Z,22.3
2017-05-19T06:02:21.609Z,22.2
2017-05-19T06:03:30.934Z,22.28
2017-05-19T06:04:41.211Z,22.28
2017-05-19T06:05:50.848Z,22.27
2017-05-19T06:07:01.112Z,22.25
2017-05-19T06:08:11.387Z,22.21
2017-05-19T06:09:20.720Z,22.25
2017-05-19T06:10:30.372Z,22.24
2017-05-19T06:11:40.327Z,22.24
2017-05-19T06:12:50.591Z,22.27
2017-05-19T06:14:00.546Z,22.25
2017-05-19T06:15:09.548Z,22.25
2017-05-19T06:16:19.181Z,22.28
2017-05-19T06:17:28.820Z,22.27
2017-05-19T06:18:39.088Z,22.3
2017-05-19T06:19:49.043Z,22.28
2017-05-19T06:20:59.317Z,22.28
2017-05-19T06:22:09.587Z,22.33
2017-05-19T06:23:18.913Z,22.36
2017-05-19T06:24:28.239Z,22.31
2017-05-19T06:25:38.199Z,22.37
2017-05-19T06:26:48.155Z,22.35
2017-05-19T06:27:58.419Z,22.35
2017-05-19T06:29:08.689Z,22.35
2017-05-19T06:30:18.325Z,22.4
2017-05-19T06:31:28.274Z,22.45
2017-05-19T06:32:38.547Z,22.39
2017-05-19T06:33:48.843Z,22.33
2017-05-19T06:34:58.792Z,22.49
2017-05-19T06:36:08.758Z,22.54
2017-05-19T06:37:18.713Z,22.47
2017-05-19T06:38:28.366Z,22.49
2017-05-19T06:39:38.637Z,22.47
2017-05-19T06:40:48.903Z,22.55
2017-05-19T06:41:58.854Z,22.52
2017-05-19T06:43:08.807Z,22.64
2017-05-19T06:44:18.765Z,22.6
2017-05-19T06:45:28.714Z,22.7
2017-05-19T06:46:38.661Z,22.64
2017-05-19T06:47:48.618Z,22.67
2017-05-19T06:48:58.892Z,22.67
2017-05-19T06:50:09.167Z,22.57
2017-05-19T06:51:19.119Z,22.75
2017-05-19T06:52:29.389Z,22.73
2017-05-19T06:53:39.664Z,22.79
2017-05-19T06:54:49.627Z,22.88
2017-05-19T06:55:59.636Z,22.79
2017-05-19T06:57:09.280Z,22.85
2017-05-19T06:58:18.290Z,22.85
2017-05-19T06:59:28.558Z,22.88
2017-05-19T07:00:38.567Z,22.83
2017-05-19T07:01:48.518Z,22.79
2017-05-19T07:02:58.472Z,22.85
2017-05-19T07:04:08.427Z,22.88
2017-05-19T07:05:18.066Z,22.8
2017-05-19T07:06:28.022Z,22.88
2017-05-19T07:07:37.346Z,22.97
2017-05-19T07:08:47.297Z,22.94
2017-05-19T07:09:57.242Z,22.95
2017-05-19T07:11:07.195Z,22.98
2017-05-19T07:12:17.149Z,22.97
2017-05-19T07:13:27.424Z,22.95
2017-05-19T07:14:37.066Z,22.88
2017-05-19T07:15:46.708Z,22.98
2017-05-19T07:16:56.660Z,22.86
2017-05-19T07:18:05.981Z,22.94
2017-05-19T07:19:15.934Z,22.86
2017-05-19T07:20:25.579Z,22.85
2017-05-19T07:21:35.214Z,22.82
2017-05-19T07:22:45.483Z,22.79
2017-05-19T07:23:55.437Z,22.86
2017-05-19T07:25:05.389Z,22.83
2017-05-19T07:26:15.041Z,22.82
2017-05-19T07:27:25.009Z,22.8
2017-05-19T07:28:34.645Z,22.76
2017-05-19T07:29:44.941Z,22.76
2017-05-19T07:30:54.898Z,22.82
2017-05-19T07:32:04.849Z,22.8
2017-05-19T07:33:14.178Z,22.83
2017-05-19T07:34:24.136Z,22.85
2017-05-19T07:35:33.458Z,22.8
2017-05-19T07:36:42.781Z,22.97
2017-05-19T07:37:52.741Z,22.95
2017-05-19T07:39:02.391Z,22.97
2017-05-19T07:40:11.724Z,22.92
2017-05-19T07:41:21.673Z,22.8
2017-05-19T07:42:31.621Z,22.91
2017-05-19T07:43:41.264Z,22.98
2017-05-19T07:44:51.534Z,22.9
2017-05-19T07:46:01.493Z,22.92
2017-05-19T07:47:11.136Z,22.97
2017-05-19T07:48:21.107Z,22.97
2017-05-19T07:49:31.381Z,22.95
2017-05-19T07:50:41.390Z,22.92
2017-05-19T07:51:51.026Z,22.83
2017-05-19T07:53:00.666Z,22.9
2017-05-19T07:54:10.621Z,22.8
2017-05-19T07:55:20.569Z,22.75
2017-05-19T07:56:30.530Z,22.83
2017-05-19T07:57:40.165Z,22.85
2017-05-19T07:58:50.431Z,22.8
2017-05-19T08:00:00.073Z,22.8
2017-05-19T08:01:09.707Z,22.9
2017-05-19T08:02:19.340Z,22.88
2017-05-19T08:03:29.287Z,22.9
2017-05-19T08:04:38.928Z,22.85
2017-05-19T08:05:48.882Z,22.86
2017-05-19T08:06:58.523Z,22.85
2017-05-19T08:08:08.482Z,22.86
2017-05-19T08:09:17.494Z,22.83
2017-05-19T08:10:27.136Z,22.83
2017-05-19T08:11:36.461Z,22.76
2017-05-19T08:12:46.107Z,22.77
2017-05-19T08:13:55.430Z,22.76
2017-05-19T08:15:05.379Z,22.82
2017-05-19T08:16:15.015Z,22.76
2017-05-19T08:17:25.282Z,22.83
2017-05-19T08:18:35.234Z,22.72
2017-05-19T08:19:45.187Z,22.73
2017-05-19T08:20:54.523Z,22.73
2017-05-19T08:22:04.167Z,22.73
2017-05-19T08:23:13.803Z,22.75
2017-05-19T08:24:23.448Z,22.79
2017-05-19T08:25:33.399Z,22.77
2017-05-19T08:26:43.359Z,22.79
2017-05-19T08:27:53.314Z,22.8
2017-05-19T08:29:02.960Z,22.88
2017-05-19T08:30:12.919Z,22.83
2017-05-19T08:31:22.559Z,22.82
2017-05-19T08:32:32.508Z,22.83
2017-05-19T08:33:42.772Z,22.83
2017-05-19T08:34:52.097Z,22.86
2017-05-19T08:36:01.744Z,22.85
2017-05-19T08:37:11.080Z,22.79
2017-05-19T08:38:21.037Z,22.83
2017-05-19T08:39:30.047Z,22.86
2017-05-19T08:40:39.689Z,22.86
2017-05-19T08:41:49.639Z,22.82
2017-05-19T08:42:59.281Z,22.8
2017-05-19T08:44:08.922Z,22.8
2017-05-19T08:45:18.574Z,22.82
2017-05-19T08:46:27.891Z,22.85
2017-05-19T08:47:38.156Z,22.85
2017-05-19T08:48:48.109Z,22.8
2017-05-19T08:49:58.066Z,22.83
2017-05-19T08:51:08.020Z,22.8
2017-05-19T08:52:17.660Z,22.8
2017-05-19T08:53:27.293Z,22.86
2017-05-19T08:54:36.927Z,22.8
2017-05-19T08:55:47.198Z,22.83
2017-05-19T08:56:56.834Z,22.83
2017-05-19T08:58:07.100Z,22.88
2017-05-19T08:59:17.051Z,22.92
2017-05-19T09:00:27.005Z,22.91
2017-05-19T09:01:36.326Z,22.88
2017-05-19T09:02:46.291Z,22.86
2017-05-19T09:03:55.934Z,22.85
2017-05-19T09:05:05.894Z,22.86
2017-05-19T09:06:15.846Z,22.85
2017-05-19T09:07:25.803Z,22.83
2017-05-19T09:08:34.497Z,22.83
2017-05-19T09:09:44.763Z,22.85
2017-05-19T09:10:55.035Z,22.88
2017-05-19T09:12:04.675Z,22.79
2017-05-19T09:13:14.625Z,22.83
2017-05-19T09:14:24.276Z,22.82
2017-05-19T09:15:34.587Z,22.86
2017-05-19T09:16:44.540Z,22.83
2017-05-19T09:17:54.818Z,22.82
2017-05-19T09:19:04.771Z,22.9
2017-05-19T09:20:15.048Z,22.88
2017-05-19T09:21:25.007Z,22.85
2017-05-19T09:22:34.646Z,22.82
2017-05-19T09:23:44.915Z,22.85
2017-05-19T09:24:55.181Z,22.86
2017-05-19T09:26:04.506Z,22.85
2017-05-19T09:27:13.825Z,22.82
2017-05-19T09:28:23.781Z,22.85
2017-05-19T09:29:33.751Z,22.82
2017-05-19T09:30:43.396Z,22.83
2017-05-19T09:31:53.668Z,22.88
2017-05-19T09:33:03.619Z,22.82
2017-05-19T09:34:13.254Z,22.9
2017-05-19T09:35:23.235Z,22.8
2017-05-19T09:36:33.197Z,22.82
2017-05-19T09:37:42.839Z,22.82
2017-05-19T09:38:52.797Z,22.88
2017-05-19T09:40:03.065Z,22.85
2017-05-19T09:41:13.021Z,22.88
2017-05-19T09:42:22.981Z,22.85
2017-05-19T09:43:32.932Z,22.79
2017-05-19T09:44:42.263Z,22.85
2017-05-19T09:45:52.222Z,22.82
2017-05-19T09:47:02.174Z,22.82
2017-05-19T09:48:11.497Z,22.79
2017-05-19T09:49:21.451Z,22.88
2017-05-19T09:50:31.091Z,22.9
2017-05-19T09:51:41.050Z,22.88
2017-05-19T09:52:50.692Z,22.85
2017-05-19T09:54:00.655Z,22.86
2017-05-19T09:55:10.917Z,22.85
2017-05-19T09:56:20.552Z,22.8
2017-05-19T09:57:30.509Z,22.79
2017-05-19T09:58:40.465Z,22.85
2017-05-19T09:59:50.751Z,22.9
2017-05-19T10:01:01.021Z,22.83
2017-05-19T10:02:11.289Z,22.82
2017-05-19T10:03:20.931Z,22.85
2017-05-19T10:04:30.889Z,22.8
2017-05-19T10:05:40.218Z,22.82
2017-05-19T10:06:49.865Z,22.82
2017-05-19T10:07:59.816Z,22.83
2017-05-19T10:09:10.081Z,22.9
2017-05-19T10:10:19.404Z,22.82
2017-05-19T10:11:29.351Z,22.83
2017-05-19T10:12:38.680Z,22.8
2017-05-19T10:13:48.331Z,22.8
2017-05-19T10:14:58.028Z,22.8
2017-05-19T10:16:07.985Z,22.86
2017-05-19T10:17:17.942Z,22.82
2017-05-19T10:18:28.210Z,22.82
2017-05-19T10:19:38.161Z,22.82
2017-05-19T10:20:48.118Z,22.8
2017-05-19T10:21:57.760Z,22.8
2017-05-19T10:23:08.027Z,22.77
2017-05-19T10:24:17.987Z,22.79
2017-05-19T10:25:27.940Z,22.8
2017-05-19T10:26:38.211Z,22.85
2017-05-19T10:27:48.162Z,22.82
2017-05-19T10:28:58.431Z,22.82
2017-05-19T10:30:08.384Z,22.79
2017-05-19T10:31:18.344Z,22.79
2017-05-19T10:32:28.296Z,22.85
2017-05-19T10:33:37.934Z,22.83
2017-05-19T10:34:48.224Z,22.85
2017-05-19T10:35:58.178Z,22.83
2017-05-19T10:37:08.132Z,22.77
2017-05-19T10:38:18.088Z,22.82
2017-05-19T10:39:28.056Z,22.82
2017-05-19T10:40:37.065Z,22.82
2017-05-19T10:41:47.019Z,22.8
2017-05-19T10:42:56.973Z,22.86
2017-05-19T10:44:06.617Z,22.82
2017-05-19T10:45:16.571Z,22.79
2017-05-19T10:46:26.839Z,22.82
2017-05-19T10:47:36.848Z,22.9
2017-05-19T10:48:46.176Z,22.97
2017-05-19T10:49:56.453Z,23
2017-05-19T10:51:06.725Z,22.95
2017-05-19T10:52:16.361Z,22.97
2017-05-19T10:53:26.310Z,23
2017-05-19T10:54:36.268Z,23.02
2017-05-19T10:55:46.223Z,22.98
2017-05-19T10:56:55.853Z,23
2017-05-19T10:58:05.485Z,23.09
2017-05-19T10:59:15.441Z,23.07
2017-05-19T11:00:25.392Z,23.12
2017-05-19T11:01:35.030Z,23.1
2017-05-19T11:02:44.994Z,23.12
2017-05-19T11:03:54.955Z,23.12
2017-05-19T11:05:05.218Z,22.98
2017-05-19T11:06:14.915Z,23.01
2017-05-19T11:07:24.556Z,23
2017-05-19T11:08:34.823Z,23
2017-05-19T11:09:44.781Z,22.98
2017-05-19T11:10:54.421Z,22.95
2017-05-19T11:12:04.380Z,22.92
2017-05-19T11:13:14.017Z,22.94
2017-05-19T11:14:23.662Z,22.88
2017-05-19T11:15:33.621Z,22.91
2017-05-19T11:16:43.890Z,22.92
2017-05-19T11:17:54.159Z,22.92
2017-05-19T11:19:04.116Z,22.9
2017-05-19T11:20:14.389Z,22.91
2017-05-19T11:21:24.660Z,22.9
2017-05-19T11:22:34.616Z,22.9
2017-05-19T11:23:44.593Z,22.88
2017-05-19T11:24:54.856Z,22.9
2017-05-19T11:26:05.121Z,22.86
2017-05-19T11:27:14.757Z,22.85
2017-05-19T11:28:24.711Z,22.83
2017-05-19T11:29:34.676Z,22.86
2017-05-19T11:30:44.636Z,22.91
2017-05-19T11:31:53.960Z,22.85
2017-05-19T11:33:03.591Z,22.88
2017-05-19T11:34:13.229Z,22.92
2017-05-19T11:35:22.875Z,22.91
2017-05-19T11:36:32.199Z,22.9
2017-05-19T11:37:42.188Z,22.83
2017-05-19T11:38:51.834Z,22.91
2017-05-19T11:40:01.848Z,22.86
2017-05-19T11:41:12.112Z,22.82
2017-05-19T11:42:20.807Z,22.88
2017-05-19T11:43:30.760Z,22.86
2017-05-19T11:44:40.776Z,22.83
2017-05-19T11:45:50.729Z,22.83
2017-05-19T11:47:00.685Z,22.91
2017-05-19T11:48:10.329Z,22.82
2017-05-19T11:49:19.668Z,22.85
2017-05-19T11:50:29.300Z,22.83
2017-05-19T11:51:38.939Z,22.88
2017-05-19T11:52:49.211Z,22.95
2017-05-19T11:53:59.164Z,22.92
2017-05-19T11:55:09.435Z,23
2017-05-19T11:56:19.706Z,22.98
2017-05-19T11:57:29.675Z,22.92
2017-05-19T11:58:39.957Z,22.97
2017-05-19T11:59:49.595Z,22.92
2017-05-19T12:00:59.238Z,22.88
2017-05-19T12:02:09.508Z,22.9
2017-05-19T12:03:19.151Z,22.92
2017-05-19T12:04:28.807Z,22.88
2017-05-19T12:05:39.077Z,22.91
2017-05-19T12:06:49.345Z,22.9
2017-05-19T12:07:59.319Z,22.95
2017-05-19T12:09:09.593Z,22.88
2017-05-19T12:10:19.550Z,22.88
2017-05-19T12:11:29.510Z,22.94
2017-05-19T12:12:39.773Z,22.92
2017-05-19T12:13:49.731Z,22.92
2017-05-19T12:14:59.995Z,22.92
2017-05-19T12:16:09.322Z,22.98
2017-05-19T12:17:19.597Z,22.97
2017-05-19T12:18:29.565Z,22.98
2017-05-19T12:19:39.511Z,22.92
2017-05-19T12:20:49.778Z,23.01
2017-05-19T12:21:59.411Z,23.02
2017-05-19T12:23:09.362Z,22.92
2017-05-19T12:24:19.317Z,22.95
2017-05-19T12:25:28.954Z,23
2017-05-19T12:26:38.969Z,23
2017-05-19T12:27:49.238Z,22.95
2017-05-19T12:28:59.503Z,22.97
2017-05-19T12:30:09.449Z,22.9
2017-05-19T12:31:18.806Z,22.98
2017-05-19T12:32:28.760Z,23.02
2017-05-19T12:33:39.028Z,23
2017-05-19T12:34:48.660Z,22.94
2017-05-19T12:35:57.673Z,23.04
2017-05-19T12:37:07.312Z,22.95
2017-05-19T12:38:17.270Z,23.02
2017-05-19T12:39:27.223Z,22.95
2017-05-19T12:40:37.488Z,23.04
2017-05-19T12:41:47.768Z,22.92
2017-05-19T12:42:57.722Z,22.98
2017-05-19T12:44:08.017Z,23
2017-05-19T12:45:17.982Z,23.01
2017-05-19T12:46:27.934Z,22.95
2017-05-19T12:47:37.889Z,22.98
2017-05-19T12:48:48.162Z,22.97
2017-05-19T12:49:58.435Z,22.91
2017-05-19T12:51:08.384Z,22.97
2017-05-19T12:52:18.337Z,22.95
2017-05-19T12:53:28.608Z,22.94
2017-05-19T12:54:38.562Z,22.97
2017-05-19T12:55:48.516Z,23
2017-05-19T12:56:58.468Z,22.95
2017-05-19T12:58:08.429Z,22.92
2017-05-19T12:59:18.394Z,23.09
2017-05-19T13:00:28.348Z,23.01
2017-05-19T13:01:38.304Z,22.98
2017-05-19T13:02:47.938Z,23.04
2017-05-19T13:03:58.217Z,23.04
2017-05-19T13:05:08.178Z,23
2017-05-19T13:06:18.131Z,23.04
2017-05-19T13:07:27.766Z,22.92
2017-05-19T13:08:38.031Z,22.98
2017-05-19T13:09:47.992Z,22.92
2017-05-19T13:10:57.947Z,22.92
2017-05-19T13:12:07.897Z,23
2017-05-19T13:13:18.169Z,23.02
2017-05-19T13:14:27.497Z,22.97
2017-05-19T13:15:37.143Z,22.94
2017-05-19T13:16:46.469Z,22.95
2017-05-19T13:17:56.430Z,22.98
2017-05-19T13:19:06.694Z,23
2017-05-19T13:20:16.329Z,23.01
2017-05-19T13:21:25.960Z,23
2017-05-19T13:22:35.914Z,23.01
2017-05-19T13:23:45.557Z,23.1
2017-05-19T13:24:55.831Z,22.98
2017-05-19T13:26:06.097Z,22.97
2017-05-19T13:27:15.735Z,22.98
2017-05-19T13:28:26.009Z,23.01
2017-05-19T13:29:35.659Z,23
2017-05-19T13:30:45.617Z,23
2017-05-19T13:31:55.888Z,22.97
2017-05-19T13:33:05.211Z,22.97
2017-05-19T13:34:14.540Z,22.97
2017-05-19T13:35:24.805Z,22.94
2017-05-19T13:36:35.072Z,22.92
2017-05-19T13:37:45.052Z,22.94
2017-05-19T13:38:54.690Z,22.95
2017-05-19T13:40:04.962Z,22.97
2017-05-19T13:41:14.919Z,23
2017-05-19T13:42:24.244Z,22.98
2017-05-19T13:43:33.885Z,23.02
2017-05-19T13:44:44.163Z,22.98
2017-05-19T13:45:53.808Z,22.98
2017-05-19T13:47:03.760Z,22.92
2017-05-19T13:48:13.404Z,22.95
2017-05-19T13:49:23.357Z,22.92
2017-05-19T13:50:33.312Z,23.04
2017-05-19T13:51:43.259Z,22.97
2017-05-19T13:52:53.217Z,22.95
2017-05-19T13:54:03.481Z,23
2017-05-19T13:55:13.430Z,22.98
2017-05-19T13:56:22.748Z,22.97
2017-05-19T13:57:32.392Z,22.94
2017-05-19T13:58:42.383Z,22.95
2017-05-19T13:59:52.074Z,22.94
2017-05-19T14:01:02.353Z,22.95
2017-05-19T14:02:11.996Z,22.91
2017-05-19T14:03:21.636Z,22.97
2017-05-19T14:04:31.328Z,22.97
2017-05-19T14:05:41.277Z,22.97
2017-05-19T14:06:51.234Z,22.97
2017-05-19T14:08:01.509Z,22.98
2017-05-19T14:09:11.465Z,22.98
2017-05-19T14:10:21.421Z,22.95
2017-05-19T14:11:31.693Z,22.94
2017-05-19T14:12:41.641Z,22.98
2017-05-19T14:13:51.626Z,23.01
2017-05-19T14:15:01.584Z,22.95
2017-05-19T14:16:11.546Z,22.97
2017-05-19T14:17:21.507Z,22.92
2017-05-19T14:18:31.789Z,22.94
2017-05-19T14:19:41.742Z,22.94
2017-05-19T14:20:52.004Z,22.94
2017-05-19T14:22:02.013Z,22.97
2017-05-19T14:23:12.280Z,22.91
2017-05-19T14:24:22.248Z,22.98
2017-05-19T14:25:32.206Z,23.01
2017-05-19T14:26:41.845Z,23.01
2017-05-19T14:27:51.797Z,23.05
2017-05-19T14:29:01.140Z,23
2017-05-19T14:30:11.417Z,22.97
2017-05-19T14:31:21.058Z,23
2017-05-19T14:32:31.326Z,22.95
2017-05-19T14:33:40.966Z,22.94
2017-05-19T14:34:51.232Z,23.01
2017-05-19T14:36:01.198Z,23.01
2017-05-19T14:37:11.471Z,23
2017-05-19T14:38:20.801Z,22.94
2017-05-19T14:39:31.080Z,22.95
2017-05-19T14:40:41.348Z,23.01
2017-05-19T14:41:51.304Z,23
2017-05-19T14:43:01.573Z,22.97
2017-05-19T14:44:11.527Z,23
2017-05-19T14:45:21.480Z,22.94
2017-05-19T14:46:31.437Z,22.94
2017-05-19T14:47:41.708Z,22.94
2017-05-19T14:48:52.028Z,22.95
2017-05-19T14:50:02.307Z,22.95
2017-05-19T14:51:12.576Z,22.95
2017-05-19T14:52:22.843Z,22.94
2017-05-19T14:53:33.105Z,22.92
2017-05-19T14:54:43.372Z,22.98
2017-05-19T14:55:53.328Z,22.98
2017-05-19T14:57:02.967Z,22.91
2017-05-19T14:58:12.628Z,22.98
2017-05-19T14:59:22.597Z,22.97
2017-05-19T15:00:32.239Z,22.98
2017-05-19T15:01:42.193Z,22.95
2017-05-19T15:02:51.834Z,22.91
2017-05-19T15:04:01.807Z,22.98
2017-05-19T15:05:12.084Z,22.94
2017-05-19T15:06:22.036Z,22.97
2017-05-19T15:07:31.676Z,23